Airfield :
LOGIN :

Register | Disclaimer

   EN    FR    IT 

 










Legend :    VFR   Marginal VFR   IFR   Intensive IFR   Very Intensive IFR
Visi :
Ceiling :
>= 8 km
>= 3000ft
5 to 8 km
1000 to 3000 ft
1500m to 5 km
500 to 1000 ft
800 to 1500m
200 to 500 ft
< 800m
< 200 ft
Symbols :   Thunderstorms  Fog  Heavy snow  Heavy precipitations  Wind > 20 kt
SIGMETs :     Misc.  Thunderstorms  Icing  Turbulence  Mountain Waves  Volcanic Ashes






- Airport Elevation : 82 ft
- IATA code : QIE


LFMI - Istres

CURRENT METAR :
  • 140830Z AUTO 35009KT 300V030 CAVOK 27/07 Q1015 NOSIG

EXPIRED METARs :
  • 140800Z AUTO 35011KT CAVOK 27/07 Q1015 NOSIG
  • 140730Z AUTO 36007KT 330V030 CAVOK 26/08 Q1015 NOSIG
  • 140700Z AUTO 05003KT 330V100 CAVOK 24/09 Q1015 NOSIG
  • 140630Z AUTO 36005KT CAVOK 24/08 Q1015 NOSIG
  • 140600Z AUTO 36005KT CAVOK 22/07 Q1015 NOSIG

TAF TAF LFMI
Valid from the 14 at 03:00 until the 15 at 03:00 UTC


140200Z 1403/1503 VRB03KT CAVOK
BECMG 1404/1407 34010KT
BECMG 1412/1415 24012KT
TEMPO 1415/1418 24015G25KT
BECMG 1418/1421 VRB03KT
TEMPO 1500/1503 35012KT



MET'MAP, your aeronautical weather chart ! - Copyright ORBIFLY December 2007 - Disclaimer

ORBIFLY MET'MAP TEAM :

Programming & Development : Alexandra Zaïnal
Concept & original design : Baudouin d'Aumeries
Assistance for programming : Marc-Olivier Méhu
Technical & hardware support : Manuel Goepfert

Contact : metmap@orbifly.com




SOURCES & CREDITS :

   NOAA